Time;durP1;ratioP1;P1;durP2;ratioP2;P2;SDS_P1;SDS_P2;PMS_P1;PMS_P2;Temp;Humidity;BMP_temperature;BMP_pressure;BME280_temperature;BME280_humidity;BME280_pressure;Samples;Min_cycle;Max_cycle;Signal;HPM_P1;HPM_P2
2022/05/31 00:00:10;;;;;;;;;;;8.70;99.90;;;;;;4883146;29;20112;-87
2022/05/31 00:02:36;;;;;;;0.65;0.60;;;8.70;99.90;;;;;;4882369;29;19983;-86
2022/05/31 00:05:02;;;;;;;0.98;0.90;;;8.80;99.90;;;;;;4882830;29;20131;-87
2022/05/31 00:07:28;;;;;;;0.40;0.40;;;8.70;99.90;;;;;;4897863;29;20121;-87
2022/05/31 00:09:54;;;;;;;0.60;0.60;;;8.70;99.90;;;;;;4862730;29;20072;-87
2022/05/31 00:12:19;;;;;;;2.60;0.83;;;8.70;99.90;;;;;;4881896;29;20057;-87
2022/05/31 00:14:46;;;;;;;0.67;0.67;;;8.70;99.90;;;;;;4882744;29;20108;-87
2022/05/31 00:17:11;;;;;;;1.60;0.98;;;8.70;99.90;;;;;;4897941;29;20127;-87
2022/05/31 00:19:37;;;;;;;0.83;0.80;;;8.70;99.90;;;;;;4880734;29;20127;-86
2022/05/31 00:22:05;;;;;;;2.60;0.67;;;8.70;99.90;;;;;;4882559;29;20048;-87
2022/05/31 00:24:31;;;;;;;0.63;0.63;;;8.70;99.90;;;;;;4866421;29;20147;-87
2022/05/31 00:26:57;;;;;;;1.00;0.90;;;9.30;99.90;;;;;;4881403;29;20104;-87
2022/05/31 00:29:23;;;;;;;0.70;0.70;;;8.80;99.90;;;;;;4881048;29;20151;-87
2022/05/31 00:31:51;;;;;;;0.80;0.80;;;8.80;99.90;;;;;;4882632;29;20076;-86
2022/05/31 00:34:17;;;;;;;0.82;0.80;;;8.80;99.90;;;;;;4882320;29;20495;-87
2022/05/31 00:36:46;;;;;;;1.10;0.90;;;8.80;99.90;;;;;;4881532;29;20046;-87
2022/05/31 00:39:12;;;;;;;1.38;0.93;;;8.80;99.90;;;;;;4866762;29;20504;-86
2022/05/31 00:41:39;;;;;;;0.82;0.82;;;8.80;99.90;;;;;;4881197;29;20049;-86
2022/05/31 00:44:11;;;;;;;0.82;0.80;;;8.90;99.90;;;;;;4866887;29;20052;-87
2022/05/31 00:46:44;;;;;;;1.58;0.70;;;9.00;99.90;;;;;;4896491;29;20112;-87
2022/05/31 00:49:13;;;;;;;0.80;0.80;;;8.90;99.90;;;;;;4865465;29;20087;-86
2022/05/31 00:51:44;;;;;;;1.17;0.80;;;8.90;99.90;;;;;;4881167;29;20112;-87
2022/05/31 00:54:17;;;;;;;1.52;0.98;;;10.00;99.90;;;;;;4881992;29;20088;-86
2022/05/31 00:56:46;;;;;;;1.33;1.20;;;9.00;99.90;;;;;;4881431;29;20111;-86
2022/05/31 00:59:14;;;;;;;0.85;0.85;;;9.00;99.90;;;;;;4882064;29;20063;-86
2022/05/31 01:01:41;;;;;;;0.90;0.90;;;9.40;99.90;;;;;;4896533;29;20079;-86
2022/05/31 01:04:07;;;;;;;1.40;0.88;;;8.90;99.90;;;;;;4881751;29;20139;-86
2022/05/31 01:06:34;;;;;;;1.58;1.17;;;9.00;99.90;;;;;;4881118;29;20131;-87
2022/05/31 01:09:00;;;;;;;2.08;1.05;;;9.00;99.90;;;;;;4881404;29;20044;-86
2022/05/31 01:11:29;;;;;;;1.42;1.10;;;9.00;99.90;;;;;;4865472;29;20057;-87
2022/05/31 01:13:55;;;;;;;2.75;0.90;;;9.00;99.90;;;;;;4865698;29;20155;-87
2022/05/31 01:16:21;;;;;;;2.53;1.33;;;9.00;99.90;;;;;;4881570;29;20139;-86
2022/05/31 01:18:47;;;;;;;2.03;1.20;;;8.90;99.90;;;;;;4864317;29;20184;-87
2022/05/31 01:21:13;;;;;;;1.50;1.20;;;9.00;99.90;;;;;;4867840;29;20064;-86
2022/05/31 01:24:14;;;;;;;2.77;1.43;;;9.00;99.90;;;;;;4880844;29;20075;-87
2022/05/31 01:27:00;;;;;;;1.23;1.13;;;9.00;99.90;;;;;;4860527;29;20297;-87
2022/05/31 01:29:32;;;;;;;1.30;1.20;;;9.00;99.90;;;;;;4881179;29;20087;-87
2022/05/31 01:31:59;;;;;;;1.42;1.33;;;9.00;99.90;;;;;;4881078;29;20055;-87
2022/05/31 01:34:30;;;;;;;1.75;1.52;;;9.00;99.90;;;;;;4881266;29;20519;-86
2022/05/31 01:36:56;;;;;;;1.67;1.40;;;9.00;99.90;;;;;;4881318;29;20088;-87
2022/05/31 01:39:25;;;;;;;;;;;9.00;99.90;;;;;;4897308;29;20045;-87
2022/05/31 01:42:05;;;;;;;2.40;1.38;;;9.00;99.90;;;;;;4880293;29;20014;-87
2022/05/31 01:44:35;;;;;;;1.67;1.38;;;9.00;99.90;;;;;;4862118;29;20123;-87
2022/05/31 01:47:03;;;;;;;1.98;1.60;;;9.00;99.90;;;;;;4862586;29;20048;-87
2022/05/31 01:49:35;;;;;;;1.60;1.50;;;9.00;99.90;;;;;;4872008;29;20052;-88
2022/05/31 01:52:01;;;;;;;1.83;1.58;;;9.00;99.90;;;;;;4880870;29;20056;-87
2022/05/31 01:54:27;;;;;;;1.83;1.52;;;9.00;99.90;;;;;;4864770;29;20403;-87
2022/05/31 01:56:58;;;;;;;2.83;1.92;;;9.00;99.90;;;;;;4880418;29;20051;-87
2022/05/31 01:59:26;;;;;;;2.63;1.20;;;9.00;99.90;;;;;;4865779;29;20135;-87
2022/05/31 02:01:52;;;;;;;3.55;1.80;;;9.00;99.90;;;;;;4880466;29;20052;-87
2022/05/31 02:04:18;;;;;;;1.83;1.42;;;9.00;99.90;;;;;;4879837;29;20047;-87
2022/05/31 02:06:45;;;;;;;1.50;1.40;;;9.00;99.90;;;;;;4879720;29;20119;-87
2022/05/31 02:09:13;;;;;;;1.88;1.77;;;9.70;99.90;;;;;;4865198;29;20048;-87
2022/05/31 02:11:40;;;;;;;2.40;1.60;;;9.10;99.90;;;;;;4880058;29;20514;-87
2022/05/31 02:14:06;;;;;;;;;;;9.00;99.90;;;;;;4880826;29;20052;-87
2022/05/31 02:16:33;;;;;;;1.25;1.15;;;9.00;99.90;;;;;;4880428;29;19923;-87
2022/05/31 02:21:43;;;;;;;1.83;1.63;;;9.00;99.90;;;;;;4880256;29;20092;-87
2022/05/31 02:24:11;;;;;;;2.20;1.37;;;9.00;99.90;;;;;;4879383;29;20076;-87
2022/05/31 02:26:43;;;;;;;1.63;1.38;;;9.00;99.90;;;;;;4880138;29;20476;-87
2022/05/31 02:29:10;;;;;;;3.42;1.70;;;9.00;99.90;;;;;;4880607;29;20051;-86
2022/05/31 02:31:37;;;;;;;1.58;1.33;;;9.00;99.90;;;;;;4880241;29;20075;-87
2022/05/31 02:34:04;;;;;;;2.25;1.77;;;9.00;99.90;;;;;;4895927;29;20115;-87
2022/05/31 02:36:30;;;;;;;2.95;1.83;;;9.30;99.90;;;;;;4849586;29;20104;-87
2022/05/31 02:38:56;;;;;;;1.85;1.73;;;9.00;99.90;;;;;;4880039;29;20049;-87
2022/05/31 02:41:22;;;;;;;2.10;1.70;;;9.00;99.90;;;;;;4895888;29;20049;-87
2022/05/31 02:43:48;;;;;;;2.75;1.88;;;9.10;99.90;;;;;;4879971;29;20056;-87
2022/05/31 02:46:14;;;;;;;2.13;1.55;;;9.10;99.90;;;;;;4878802;29;20275;-86
2022/05/31 02:48:40;;;;;;;2.93;1.73;;;9.00;99.90;;;;;;4875562;29;20096;-88
2022/05/31 02:51:05;;;;;;;2.73;1.57;;;9.10;99.90;;;;;;4862067;29;20048;-87
2022/05/31 02:53:31;;;;;;;3.03;2.03;;;9.00;99.90;;;;;;4861710;29;20084;-86
2022/05/31 02:55:58;;;;;;;2.07;1.87;;;9.10;99.90;;;;;;4885452;29;20048;-87
2022/05/31 02:58:27;;;;;;;2.78;1.85;;;9.00;99.90;;;;;;4864942;29;20167;-87
2022/05/31 03:00:54;;;;;;;3.00;2.00;;;9.00;99.90;;;;;;4879884;29;20075;-87
2022/05/31 03:03:20;;;;;;;2.40;1.88;;;9.10;99.90;;;;;;4864888;29;20045;-87
2022/05/31 03:05:45;;;;;;;3.38;1.85;;;9.30;99.90;;;;;;4880474;29;20060;-87
2022/05/31 03:08:12;;;;;;;2.57;1.93;;;9.00;99.90;;;;;;4883807;29;20047;-87
2022/05/31 03:10:44;;;;;;;2.13;1.92;;;9.00;99.90;;;;;;4883771;29;20395;-86
2022/05/31 03:13:11;;;;;;;3.63;2.25;;;9.00;99.90;;;;;;4883281;29;20064;-86
2022/05/31 03:15:37;;;;;;;2.60;1.80;;;9.00;99.90;;;;;;4868426;29;20066;-86
2022/05/31 03:18:09;;;;;;;1.90;1.80;;;9.00;99.90;;;;;;4880578;29;20052;-87
2022/05/31 03:20:37;;;;;;;3.28;1.75;;;9.00;99.90;;;;;;4898676;29;20135;-87
2022/05/31 03:23:15;;;;;;;3.65;2.17;;;9.00;99.90;;;;;;4882760;29;20060;-86
2022/05/31 03:25:44;;;;;;;1.92;1.50;;;9.00;99.90;;;;;;4865098;29;20052;-87
2022/05/31 03:28:10;;;;;;;2.08;1.88;;;9.00;99.90;;;;;;4866146;29;20400;-86
2022/05/31 03:30:38;;;;;;;2.33;1.73;;;9.00;99.90;;;;;;4874086;29;20052;-87
2022/05/31 03:33:06;;;;;;;2.28;2.00;;;9.00;99.90;;;;;;4882909;29;20128;-86
2022/05/31 03:35:32;;;;;;;2.00;1.88;;;9.00;99.90;;;;;;4868078;29;20135;-87
2022/05/31 03:37:58;;;;;;;3.97;1.70;;;9.00;99.90;;;;;;4866981;29;20131;-87
2022/05/31 03:43:07;;;;;;;1.63;1.52;;;9.00;99.90;;;;;;4882696;29;20535;-87
2022/05/31 03:45:35;;;;;;;2.77;1.83;;;9.00;99.90;;;;;;4867697;29;20135;-86
2022/05/31 03:48:02;;;;;;;1.70;1.60;;;9.00;99.90;;;;;;4896959;29;20048;-87
2022/05/31 03:50:28;;;;;;;3.58;1.73;;;9.00;99.90;;;;;;4867187;29;20056;-87
2022/05/31 03:52:53;;;;;;;2.17;1.80;;;9.00;99.90;;;;;;4849117;29;20060;-87
2022/05/31 03:55:20;;;;;;;1.83;1.53;;;9.00;99.90;;;;;;4852055;29;20087;-87
2022/05/31 03:57:47;;;;;;;3.33;2.40;;;9.00;99.90;;;;;;4867462;29;20044;-87
2022/05/31 04:00:14;;;;;;;1.88;1.63;;;10.00;99.90;;;;;;4882440;29;20055;-87
2022/05/31 04:02:39;;;;;;;4.80;2.00;;;9.00;99.90;;;;;;4882987;29;20040;-87
2022/05/31 04:05:06;;;;;;;2.63;2.13;;;9.00;99.90;;;;;;4866979;29;20471;-87
2022/05/31 04:07:32;;;;;;;1.92;1.83;;;9.00;99.90;;;;;;4867114;29;20047;-87
2022/05/31 04:09:58;;;;;;;2.10;1.85;;;9.70;99.90;;;;;;4866585;29;20124;-87
2022/05/31 04:12:24;;;;;;;2.45;2.25;;;9.00;99.90;;;;;;4881962;29;20060;-87
2022/05/31 04:14:52;;;;;;;3.70;1.90;;;9.90;99.90;;;;;;4882384;29;20056;-87
2022/05/31 04:17:17;;;;;;;2.47;1.98;;;9.10;99.90;;;;;;4882120;29;20052;-87
2022/05/31 04:19:43;;;;;;;1.93;1.60;;;9.10;99.90;;;;;;4866066;29;20399;-87
2022/05/31 04:22:09;;;;;;;1.63;1.53;;;9.10;99.90;;;;;;4866659;29;20138;-87
2022/05/31 04:24:35;;;;;;;1.80;1.63;;;9.10;99.90;;;;;;4881680;29;20079;-86
2022/05/31 04:27:01;;;;;;;2.10;1.90;;;9.10;99.90;;;;;;4881958;29;20514;-87
2022/05/31 04:29:27;;;;;;;3.57;2.33;;;9.10;99.90;;;;;;4866751;29;20041;-86
2022/05/31 04:31:53;;;;;;;1.93;1.57;;;9.10;99.90;;;;;;4866381;29;20143;-87
2022/05/31 04:34:18;;;;;;;3.07;2.40;;;9.10;99.90;;;;;;4882136;29;20053;-87
2022/05/31 04:36:44;;;;;;;3.00;2.23;;;9.20;99.90;;;;;;4851546;29;20064;-87
2022/05/31 04:39:09;;;;;;;3.40;2.47;;;9.20;99.90;;;;;;4881764;29;20060;-87
2022/05/31 04:41:35;;;;;;;2.77;2.17;;;9.10;99.90;;;;;;4882305;29;20452;-86
2022/05/31 04:44:04;;;;;;;1.80;1.57;;;9.10;99.90;;;;;;4866005;29;20064;-87
2022/05/31 04:46:32;;;;;;;3.92;2.25;;;9.10;99.90;;;;;;4881893;29;20055;-87
2022/05/31 04:48:59;;;;;;;1.77;1.65;;;9.10;99.90;;;;;;4880233;29;20092;-87
2022/05/31 04:51:27;;;;;;;2.65;2.22;;;9.10;99.90;;;;;;4882323;29;20064;-87
2022/05/31 04:53:53;;;;;;;2.63;2.42;;;9.10;99.90;;;;;;4882053;29;20522;-86
2022/05/31 04:56:20;;;;;;;3.30;2.42;;;9.20;99.90;;;;;;4897867;29;20048;-87
2022/05/31 04:58:47;;;;;;;2.50;2.30;;;9.20;99.90;;;;;;4881685;29;20052;-87
2022/05/31 05:01:13;;;;;;;2.65;1.83;;;9.20;99.90;;;;;;4865595;29;20056;-87
2022/05/31 05:03:41;;;;;;;5.67;2.07;;;9.20;99.90;;;;;;4866366;29;20044;-87
2022/05/31 05:06:09;;;;;;;2.72;2.13;;;9.20;99.90;;;;;;4881260;29;20053;-87
2022/05/31 05:08:36;;;;;;;3.65;1.92;;;9.30;99.90;;;;;;4897054;29;20053;-87
2022/05/31 05:11:11;;;;;;;3.10;2.20;;;9.30;99.90;;;;;;4880956;29;20037;-87
2022/05/31 05:13:38;;;;;;;2.38;2.03;;;9.30;99.90;;;;;;4865650;29;20072;-87
2022/05/31 05:16:06;;;;;;;5.40;3.00;;;9.40;99.90;;;;;;4861149;29;20481;-86
2022/05/31 05:18:32;;;;;;;5.25;2.47;;;9.30;99.90;;;;;;4847571;29;20124;-87
2022/05/31 05:21:03;;;;;;;3.60;2.63;;;9.40;99.90;;;;;;4877876;29;20538;-87
2022/05/31 05:23:29;;;;;;;2.38;2.10;;;9.40;99.90;;;;;;4881321;29;20053;-87
2022/05/31 05:25:56;;;;;;;2.10;1.90;;;9.40;99.90;;;;;;4850428;29;20079;-87
2022/05/31 05:31:16;;;;;;;3.05;2.30;;;9.50;99.90;;;;;;4880511;29;20063;-87
2022/05/31 05:33:42;;;;;;;2.90;2.50;;;9.50;99.90;;;;;;4865632;29;20091;-87
2022/05/31 05:36:08;;;;;;;2.55;2.28;;;9.50;99.90;;;;;;4880905;29;20060;-87
2022/05/31 05:38:34;;;;;;;5.13;2.27;;;9.60;99.90;;;;;;4880895;29;20052;-87
2022/05/31 05:40:59;;;;;;;3.07;2.53;;;9.60;99.90;;;;;;4881152;29;20053;-87
2022/05/31 05:43:25;;;;;;;3.33;2.53;;;9.70;99.90;;;;;;4880897;29;20049;-86
2022/05/31 05:45:51;;;;;;;3.00;2.47;;;9.60;99.90;;;;;;4865860;29;20408;-87
2022/05/31 05:48:17;;;;;;;2.97;2.47;;;9.60;99.90;;;;;;4879491;29;20111;-87
2022/05/31 05:50:42;;;;;;;2.53;2.33;;;9.70;99.90;;;;;;4893315;29;20411;-87
2022/05/31 05:53:10;;;;;;;5.20;2.30;;;9.70;99.90;;;;;;4879940;29;20044;-87
2022/05/31 05:55:37;;;;;;;4.70;2.85;;;9.70;99.90;;;;;;4879365;29;20476;-87
2022/05/31 05:58:03;;;;;;;;;;;9.70;99.90;;;;;;4865441;29;20535;-87
2022/05/31 06:00:30;;;;;;;3.63;2.65;;;9.80;99.90;;;;;;4865308;29;20034;-87
2022/05/31 06:03:10;;;;;;;4.25;2.72;;;9.80;99.90;;;;;;4865457;29;20052;-87
2022/05/31 06:05:37;;;;;;;2.97;2.60;;;9.90;99.90;;;;;;4880248;29;20062;-86
2022/05/31 06:08:12;;;;;;;2.22;2.03;;;9.90;99.90;;;;;;4880965;29;20049;-87
2022/05/31 06:10:44;;;;;;;3.35;2.20;;;10.00;99.90;;;;;;4881144;29;20072;-87
2022/05/31 06:13:17;;;;;;;3.75;2.78;;;10.00;99.90;;;;;;4880033;29;20064;-87
2022/05/31 06:15:54;;;;;;;3.83;2.28;;;10.10;99.90;;;;;;4880543;29;20136;-87
2022/05/31 06:18:31;;;;;;;2.60;2.40;;;10.10;99.90;;;;;;4896778;29;20053;-87
2022/05/31 06:21:00;;;;;;;;;;;10.10;99.90;;;;;;4886506;29;20049;-87
2022/05/31 06:23:26;;;;;;;4.85;2.72;;;10.10;99.90;;;;;;4874479;29;19969;-87
2022/05/31 06:25:52;;;;;;;3.45;2.60;;;10.20;99.90;;;;;;4880535;29;20057;-86
2022/05/31 06:28:18;;;;;;;4.60;2.50;;;10.20;99.90;;;;;;4864423;29;20112;-87
2022/05/31 06:30:43;;;;;;;3.77;2.63;;;10.30;99.90;;;;;;4880628;29;20041;-87
2022/05/31 06:33:09;;;;;;;3.77;3.37;;;10.30;99.90;;;;;;4880151;29;20092;-87
2022/05/31 06:35:36;;;;;;;4.30;2.53;;;10.40;99.90;;;;;;4865231;29;20377;-86
2022/05/31 06:38:02;;;;;;;;;;;10.40;99.90;;;;;;4865124;29;20129;-87
2022/05/31 06:40:28;;;;;;;4.20;1.88;;;10.50;99.90;;;;;;4881630;29;19983;-86
2022/05/31 06:42:54;;;;;;;3.20;2.03;;;10.50;99.90;;;;;;4884476;29;20053;-86
2022/05/31 06:45:19;;;;;;;3.20;1.50;;;10.60;99.90;;;;;;4868011;29;20052;-86
2022/05/31 06:47:45;;;;;;;2.93;2.43;;;10.70;99.90;;;;;;4883890;29;20060;-86
2022/05/31 06:50:12;;;;;;;3.87;2.87;;;10.70;99.90;;;;;;4881945;29;20077;-87
2022/05/31 06:58:07;;;;;;;3.15;2.65;;;11.00;99.90;;;;;;4867964;29;20147;-86
2022/05/31 07:00:33;;;;;;;3.25;2.75;;;11.00;99.90;;;;;;4865300;29;20049;-86
2022/05/31 07:02:59;;;;;;;4.13;2.60;;;11.10;99.90;;;;;;4867874;29;20087;-86
2022/05/31 07:05:26;;;;;;;2.92;2.55;;;11.30;99.90;;;;;;4883356;29;20060;-86
2022/05/31 07:07:52;;;;;;;;;;;11.40;99.90;;;;;;4868679;29;20105;-87
2022/05/31 07:10:18;;;;;;;3.28;2.10;;;11.50;99.90;;;;;;4881422;29;20022;-86
2022/05/31 07:12:43;;;;;;;2.30;1.90;;;11.60;99.90;;;;;;4867286;29;20133;-86
2022/05/31 07:15:10;;;;;;;4.03;2.30;;;11.70;99.90;;;;;;4849582;29;20053;-84
2022/05/31 07:17:36;;;;;;;3.42;2.20;;;11.90;99.90;;;;;;4879938;29;20057;-84
2022/05/31 07:20:07;;;;;;;2.45;2.25;;;12.00;99.90;;;;;;4882070;29;20056;-87
2022/05/31 07:22:34;;;;;;;3.40;2.00;;;12.20;99.90;;;;;;4883008;29;20127;-87
2022/05/31 07:24:59;;;;;;;2.13;1.92;;;12.30;99.90;;;;;;4868395;29;20060;-86
2022/05/31 07:27:25;;;;;;;3.10;2.20;;;12.40;99.90;;;;;;4867758;29;20511;-86
2022/05/31 07:29:51;;;;;;;3.47;1.90;;;12.50;99.90;;;;;;4867805;29;20045;-84
2022/05/31 07:32:17;;;;;;;4.63;2.35;;;12.80;99.90;;;;;;4882682;29;20095;-88
2022/05/31 07:34:43;;;;;;;2.45;2.13;;;13.10;99.90;;;;;;4883471;29;20195;-85
2022/05/31 07:37:09;;;;;;;3.80;1.90;;;13.50;99.90;;;;;;4868191;29;20067;-86
2022/05/31 07:39:35;;;;;;;3.50;2.45;;;13.90;99.90;;;;;;4867444;29;20109;-86
2022/05/31 07:42:01;;;;;;;2.33;2.13;;;14.20;99.90;;;;;;4883215;29;20108;-87
2022/05/31 07:44:27;;;;;;;2.27;1.43;;;14.40;99.90;;;;;;4867426;29;20531;-87
2022/05/31 07:46:54;;;;;;;2.22;1.60;;;14.60;99.90;;;;;;4867947;29;20316;-88
2022/05/31 07:49:23;;;;;;;4.10;1.70;;;14.70;99.90;;;;;;4852016;29;20055;-90
2022/05/31 07:51:49;;;;;;;2.22;2.03;;;14.90;99.90;;;;;;4882663;29;20080;-90
2022/05/31 07:54:15;;;;;;;2.70;1.98;;;15.00;99.90;;;;;;4854089;29;20583;-90
2022/05/31 07:56:40;;;;;;;1.40;1.23;;;15.10;99.90;;;;;;4864005;29;20354;-89
2022/05/31 07:59:07;;;;;;;3.17;1.33;;;15.20;99.90;;;;;;4849310;29;20515;-89
2022/05/31 08:01:33;;;;;;;;;;;15.40;99.90;;;;;;4872085;29;20048;-90
2022/05/31 08:03:58;;;;;;;3.13;1.63;;;15.50;99.90;;;;;;4867247;29;19930;-85
2022/05/31 08:06:29;;;;;;;2.63;1.65;;;15.60;99.90;;;;;;4863466;29;20473;-85
2022/05/31 08:08:56;;;;;;;2.92;1.85;;;15.70;99.90;;;;;;4879322;29;20475;-85
2022/05/31 08:11:28;;;;;;;3.85;1.60;;;15.70;99.90;;;;;;4864249;29;20048;-86
2022/05/31 08:13:54;;;;;;;2.85;1.77;;;15.80;99.90;;;;;;4880288;29;20052;-85
2022/05/31 08:16:22;;;;;;;1.52;1.20;;;15.80;99.90;;;;;;4856566;29;20444;-85
2022/05/31 08:18:48;;;;;;;1.75;1.27;;;16.10;99.90;;;;;;4894134;29;20036;-85
2022/05/31 08:21:15;;;;;;;;;;;16.00;99.90;;;;;;4880461;29;20428;-85
2022/05/31 08:23:42;;;;;;;1.50;1.25;;;16.00;99.90;;;;;;4864852;29;19966;-85
2022/05/31 08:26:08;;;;;;;;;;;16.10;99.90;;;;;;4880759;29;20108;-85
2022/05/31 08:28:34;;;;;;;1.13;1.02;;;16.10;99.90;;;;;;4879643;29;19923;-85
2022/05/31 08:31:02;;;;;;;2.00;1.40;;;16.20;99.90;;;;;;4896301;29;20048;-85
2022/05/31 08:33:28;;;;;;;2.78;1.23;;;16.30;99.90;;;;;;4878868;29;20088;-85
2022/05/31 08:35:55;;;;;;;2.63;1.15;;;16.40;99.90;;;;;;4888752;29;20067;-85
2022/05/31 08:38:21;;;;;;;2.45;1.20;;;16.30;99.90;;;;;;4864486;29;20100;-85
2022/05/31 08:40:58;;;;;;;;;;;16.40;99.90;;;;;;4895754;29;20570;-85
2022/05/31 08:43:35;;;;;;;1.52;1.27;;;16.60;99.90;;;;;;4864342;29;19923;-85
2022/05/31 08:46:07;;;;;;;1.73;1.20;;;16.70;99.90;;;;;;4880360;29;20044;-85
2022/05/31 08:48:39;;;;;;;1.25;1.15;;;16.90;99.90;;;;;;4879027;29;20112;-84
2022/05/31 08:56:58;;;;;;;2.15;1.67;;;17.00;99.90;;;;;;4874815;29;20055;-87
2022/05/31 08:59:35;;;;;;;2.03;1.83;;;17.20;99.90;;;;;;4859496;29;20437;-87
2022/05/31 09:02:07;;;;;;;1.27;1.17;;;17.40;99.90;;;;;;4877570;29;20052;-86
2022/05/31 09:04:39;;;;;;;3.42;2.00;;;17.40;99.90;;;;;;4882328;29;20087;-84
2022/05/31 09:07:16;;;;;;;3.92;2.30;;;17.50;99.90;;;;;;4895845;29;20080;-88
2022/05/31 09:09:52;;;;;;;4.05;2.60;;;17.50;99.90;;;;;;4892360;29;20569;-85
2022/05/31 09:12:31;;;;;;;2.97;2.05;;;17.30;99.90;;;;;;4897606;29;20156;-85
2022/05/31 09:15:29;;;;;;;2.15;1.95;;;17.10;99.90;;;;;;4880675;29;20475;-86
2022/05/31 09:18:03;;;;;;;4.28;2.05;;;16.90;99.90;;;;;;4870279;29;20060;-83
2022/05/31 09:20:46;;;;;;;3.30;2.22;;;16.70;99.90;;;;;;4879557;29;20074;-83
2022/05/31 09:23:21;;;;;;;4.18;2.35;;;16.60;99.90;;;;;;4894594;29;20136;-84
2022/05/31 09:25:58;;;;;;;4.53;2.97;;;16.40;99.90;;;;;;4878012;29;20049;-84
2022/05/31 09:28:39;;;;;;;4.75;2.58;;;16.30;99.90;;;;;;4878140;29;20539;-83
2022/05/31 09:31:17;;;;;;;2.60;2.38;;;16.10;99.90;;;;;;4862673;29;20192;-83
2022/05/31 09:33:58;;;;;;;2.72;1.90;;;16.00;99.90;;;;;;4877672;29;20057;-84
2022/05/31 09:36:58;;;;;;;3.15;2.13;;;15.80;99.90;;;;;;4873866;29;20060;-83
2022/05/31 09:39:42;;;;;;;2.55;2.15;;;15.70;99.90;;;;;;4877775;29;20115;-83
2022/05/31 09:42:23;;;;;;;2.33;1.92;;;15.60;99.90;;;;;;4881229;29;20459;-83
2022/05/31 09:44:58;;;;;;;4.78;2.10;;;15.60;99.90;;;;;;4880456;29;20492;-84
2022/05/31 09:47:28;;;;;;;2.85;1.85;;;15.60;99.90;;;;;;4881166;29;20056;-83
2022/05/31 09:49:54;;;;;;;2.55;2.17;;;15.60;99.90;;;;;;4864780;29;20052;-84
2022/05/31 09:52:22;;;;;;;;;;;15.70;99.90;;;;;;4865697;29;20049;-83
2022/05/31 09:58:07;;;;;;;1.95;1.80;;;16.00;99.90;;;;;;4880503;29;20407;-84
2022/05/31 10:00:34;;;;;;;2.42;2.22;;;16.10;99.90;;;;;;4881013;29;20060;-84
2022/05/31 10:03:07;;;;;;;3.50;2.53;;;16.10;99.90;;;;;;4880359;29;20104;-83
2022/05/31 10:05:34;;;;;;;2.53;2.33;;;16.20;99.90;;;;;;4880399;29;20491;-84
2022/05/31 10:08:00;;;;;;;5.38;2.35;;;16.20;99.90;;;;;;4880130;29;20330;-84
2022/05/31 10:10:27;;;;;;;1.70;1.60;;;16.30;99.90;;;;;;4879866;29;20047;-84
2022/05/31 10:12:56;;;;;;;6.13;3.20;;;16.40;99.90;;;;;;4878720;29;20563;-84
2022/05/31 10:15:43;;;;;;;2.40;2.20;;;16.40;99.90;;;;;;4883785;29;20052;-84
2022/05/31 10:18:39;;;;;;;4.25;2.25;;;16.50;99.90;;;;;;4871815;29;20416;-84
2022/05/31 10:21:10;;;;;;;3.17;2.97;;;16.50;99.90;;;;;;4880454;29;20057;-86
2022/05/31 10:23:43;;;;;;;3.40;2.15;;;16.50;99.90;;;;;;4868651;29;20092;-85
2022/05/31 10:26:27;;;;;;;3.28;2.33;;;16.50;99.90;;;;;;4899427;29;20044;-85
2022/05/31 10:28:58;;;;;;;3.15;2.20;;;16.50;99.90;;;;;;4886121;29;20083;-86
2022/05/31 10:31:36;;;;;;;19.83;2.63;;;16.60;99.90;;;;;;4883964;29;20048;-86
2022/05/31 10:34:06;;;;;;;3.25;2.30;;;16.60;99.90;;;;;;4858624;29;20040;-87
2022/05/31 10:36:50;;;;;;;7.20;2.13;;;16.70;99.90;;;;;;4870681;29;20516;-87
2022/05/31 10:39:22;;;;;;;2.25;2.05;;;16.70;99.90;;;;;;4886222;29;20056;-87
2022/05/31 10:41:52;;;;;;;1.83;1.55;;;16.70;99.90;;;;;;4872966;29;20076;-87
2022/05/31 10:44:35;;;;;;;1.58;1.48;;;16.70;99.90;;;;;;4886696;29;20148;-87
2022/05/31 10:47:14;;;;;;;2.13;1.67;;;16.70;99.90;;;;;;4870796;29;20048;-87
2022/05/31 10:49:41;;;;;;;6.43;2.40;;;16.80;99.90;;;;;;4885860;29;20041;-87
2022/05/31 10:52:33;;;;;;;2.15;1.50;;;16.80;99.90;;;;;;4885981;29;20044;-87
2022/05/31 10:55:01;;;;;;;2.65;1.73;;;16.80;99.90;;;;;;4886188;29;20484;-87
2022/05/31 10:58:08;;;;;;;1.70;1.52;;;16.90;99.90;;;;;;4886651;29;20052;-87
2022/05/31 11:00:53;;;;;;;3.08;2.17;;;16.90;99.90;;;;;;4863476;29;20567;-87
2022/05/31 11:03:45;;;;;;;3.15;1.85;;;16.80;99.90;;;;;;4886347;29;20048;-87
2022/05/31 11:06:36;;;;;;;2.47;1.38;;;16.80;99.90;;;;;;4886430;29;20068;-86
2022/05/31 11:12:34;;;;;;;3.78;2.25;;;16.70;99.80;;;;;;4886119;29;20059;-87
2022/05/31 11:15:13;;;;;;;7.82;2.00;;;16.80;99.90;;;;;;4886162;29;20056;-87
2022/05/31 11:18:05;;;;;;;3.65;1.85;;;16.90;99.90;;;;;;4886794;29;20147;-87
2022/05/31 11:20:42;;;;;;;2.58;2.20;;;16.90;99.90;;;;;;4886623;29;20134;-86
2022/05/31 11:23:29;;;;;;;2.35;1.63;;;17.00;98.80;;;;;;4885966;29;20059;-85
2022/05/31 11:26:18;;;;;;;;;;;17.00;99.80;;;;;;4885024;29;20060;-89
2022/05/31 11:28:58;;;;;;;4.57;1.80;;;17.10;99.40;;;;;;4868341;29;19923;-89
2022/05/31 11:32:15;;;;;;;2.85;1.95;;;17.20;99.30;;;;;;4882822;29;20083;-86
2022/05/31 11:34:58;;;;;;;2.28;1.88;;;17.40;98.40;;;;;;4857943;29;20082;-85
2022/05/31 11:37:32;;;;;;;1.95;1.80;;;17.70;98.10;;;;;;4900863;29;20056;-88
2022/05/31 11:40:22;;;;;;;2.40;2.20;;;18.10;98.80;;;;;;4883773;29;20055;-88
2022/05/31 11:43:12;;;;;;;2.40;2.10;;;18.40;96.90;;;;;;4883536;29;20048;-88
2022/05/31 11:46:12;;;;;;;2.00;1.80;;;18.60;96.00;;;;;;4883488;29;20049;-86
2022/05/31 11:49:01;;;;;;;3.60;2.35;;;18.70;94.60;;;;;;4883245;29;20052;-86
2022/05/31 11:51:42;;;;;;;1.92;1.83;;;18.60;94.40;;;;;;4867430;29;20056;-85
2022/05/31 11:54:29;;;;;;;4.00;2.00;;;18.50;94.40;;;;;;4879673;29;20045;-85
2022/05/31 11:57:08;;;;;;;4.28;2.60;;;18.40;95.00;;;;;;4849051;29;20103;-89
2022/05/31 11:59:43;;;;;;;4.55;1.77;;;18.30;94.80;;;;;;4864811;29;20045;-86
2022/05/31 12:02:25;;;;;;;3.10;2.17;;;18.30;94.10;;;;;;4870556;29;20060;-88
2022/05/31 12:05:01;;;;;;;2.45;1.98;;;18.30;93.60;;;;;;4879445;29;20559;-87
2022/05/31 12:07:50;;;;;;;3.30;1.85;;;18.20;93.40;;;;;;4869840;29;20116;-87
2022/05/31 12:10:21;;;;;;;2.38;1.95;;;18.20;93.30;;;;;;4866376;29;20044;-88
2022/05/31 12:12:48;;;;;;;4.18;1.98;;;18.20;94.20;;;;;;4879337;29;20116;-86
2022/05/31 12:15:15;;;;;;;3.90;2.17;;;18.10;93.50;;;;;;4879126;29;20053;-87
2022/05/31 12:17:51;;;;;;;2.97;1.65;;;18.10;93.20;;;;;;4879603;29;20404;-86
2022/05/31 12:20:47;;;;;;;4.50;2.58;;;18.00;92.30;;;;;;4878677;29;20048;-87
2022/05/31 12:23:40;;;;;;;2.10;1.73;;;18.00;92.60;;;;;;4875648;29;20512;-86
2022/05/31 12:26:35;;;;;;;2.05;1.60;;;17.90;92.40;;;;;;4876016;29;20080;-86
2022/05/31 12:29:27;;;;;;;2.55;1.60;;;17.90;91.90;;;;;;4869133;29;20061;-91
2022/05/31 12:32:24;;;;;;;4.00;2.13;;;17.80;92.60;;;;;;4862184;29;20500;-88
2022/05/31 12:34:50;;;;;;;2.33;1.50;;;17.70;91.90;;;;;;4875070;29;20048;-87
2022/05/31 12:37:15;;;;;;;2.35;1.40;;;17.60;92.80;;;;;;4878138;29;20049;-86
2022/05/31 12:39:43;;;;;;;2.05;1.60;;;17.50;92.60;;;;;;4878661;29;20136;-86
2022/05/31 12:42:15;;;;;;;2.67;1.98;;;17.40;92.70;;;;;;4877495;29;20129;-86
2022/05/31 12:44:48;;;;;;;3.42;2.67;;;17.40;92.40;;;;;;4877713;29;20500;-87
2022/05/31 12:47:32;;;;;;;4.95;1.77;;;17.40;92.30;;;;;;4892565;29;20049;-87
2022/05/31 12:50:11;;;;;;;3.10;2.50;;;17.30;91.90;;;;;;4861775;29;20052;-87
2022/05/31 12:53:43;;;;;;;3.83;1.92;;;17.30;91.80;;;;;;4877568;29;20064;-87
2022/05/31 12:55:43;;;;;;;4.82;1.88;;;17.20;92.20;;;;;;4867214;29;20045;-87
2022/05/31 12:58:29;;;;;;;3.30;2.17;;;17.20;91.90;;;;;;4876863;29;20044;-86
2022/05/31 13:01:04;;;;;;;2.63;1.70;;;17.20;91.30;;;;;;4877275;29;20049;-86
2022/05/31 13:03:33;;;;;;;2.28;1.80;;;17.10;91.60;;;;;;4876209;29;20504;-86
2022/05/31 13:06:03;;;;;;;3.05;1.80;;;17.10;91.60;;;;;;4850523;29;20527;-90
2022/05/31 13:08:57;;;;;;;2.03;1.70;;;17.10;91.40;;;;;;4877354;29;20184;-89
2022/05/31 13:20:01;;;;;;;5.50;2.83;;;16.90;91.00;;;;;;4878316;29;20052;-87
2022/05/31 13:22:35;;;;;;;3.30;1.65;;;16.90;91.00;;;;;;4877389;29;20044;-87
2022/05/31 13:25:17;;;;;;;2.83;2.03;;;16.80;90.90;;;;;;4862402;29;20053;-88
2022/05/31 13:27:50;;;;;;;1.90;1.70;;;16.70;90.80;;;;;;4878664;29;20061;-88
2022/05/31 13:30:18;;;;;;;6.97;2.65;;;16.70;91.00;;;;;;4877804;29;20139;-83
2022/05/31 13:32:44;;;;;;;2.33;1.90;;;16.70;91.00;;;;;;4893808;29;20060;-83
2022/05/31 13:35:16;;;;;;;4.47;2.67;;;16.60;90.90;;;;;;4888352;29;20057;-92
2022/05/31 13:38:08;;;;;;;4.28;2.65;;;16.50;91.60;;;;;;4878563;29;20053;-90
2022/05/31 13:40:48;;;;;;;3.10;2.50;;;16.40;92.40;;;;;;4878530;29;20056;-89
2022/05/31 13:43:50;;;;;;;4.90;2.80;;;16.40;92.30;;;;;;4878319;29;20381;-90
2022/05/31 13:46:32;;;;;;;7.03;3.30;;;16.40;92.50;;;;;;4878188;29;20052;-90
2022/05/31 13:52:38;;;;;;;3.65;2.42;;;16.20;92.60;;;;;;4879660;29;20504;-91
2022/05/31 13:55:21;;;;;;;3.50;3.20;;;16.10;92.90;;;;;;4863162;29;20060;-90